Time;durP1;ratioP1;P1;durP2;ratioP2;P2;SDS_P1;SDS_P2;PMS_P1;PMS_P2;Temp;Humidity;BMP_temperature;BMP_pressure;BME280_temperature;BME280_humidity;BME280_pressure;Samples;Min_cycle;Max_cycle;Signal;HPM_P1;HPM_P2
2023/08/22 00:01:28;;;;;;;8.50;3.40;;;;;;;;;;5033650;28;20131;-68
2023/08/22 00:03:56;;;;;;;6.13;2.70;;;;;;;;;;5017200;28;20591;-67
2023/08/22 00:06:24;;;;;;;11.07;2.97;;;;;;;;;;5050720;28;20071;-67
2023/08/22 00:08:50;;;;;;;8.57;3.22;;;;;;;;;;5035045;28;20045;-67
2023/08/22 00:11:18;;;;;;;6.60;2.90;;;;;;;;;;5038183;28;20051;-67
2023/08/22 00:13:43;;;;;;;4.63;3.00;;;;;;;;;;5054534;28;20048;-68
2023/08/22 00:16:09;;;;;;;8.25;3.05;;;;;;;;;;5038767;28;20040;-66
2023/08/22 00:18:35;;;;;;;7.05;3.00;;;;;;;;;;5021295;28;20095;-65
2023/08/22 00:21:01;;;;;;;8.68;3.30;;;;;;;;;;5053955;28;20045;-66
2023/08/22 00:23:26;;;;;;;6.07;2.70;;;;;;;;;;5054094;28;20128;-65
2023/08/22 00:25:52;;;;;;;5.97;3.10;;;;;;;;;;5053858;28;20127;-66
2023/08/22 00:28:17;;;;;;;11.65;3.30;;;;;;;;;;5037302;28;20083;-65
2023/08/22 00:30:44;;;;;;;5.82;2.70;;;;;;;;;;5022159;28;20056;-65
2023/08/22 00:33:09;;;;;;;9.85;3.45;;;;;;;;;;5035875;28;20470;-65
2023/08/22 00:35:35;;;;;;;7.38;2.55;;;;;;;;;;5034808;28;20068;-66
2023/08/22 00:38:01;;;;;;;12.75;3.58;;;;;;;;;;5035219;28;20037;-65
2023/08/22 00:40:26;;;;;;;9.60;2.92;;;;;;;;;;5035000;28;20069;-65
2023/08/22 00:42:52;;;;;;;8.77;3.20;;;;;;;;;;5034589;28;20480;-66
2023/08/22 00:45:17;;;;;;;7.32;3.22;;;;;;;;;;5034713;28;20045;-66
2023/08/22 00:47:43;;;;;;;9.60;3.10;;;;;;;;;;5034949;28;20403;-66
2023/08/22 00:50:10;;;;;;;12.48;3.85;;;;;;;;;;5036182;28;20037;-65
2023/08/22 00:52:36;;;;;;;7.97;3.28;;;;;;;;;;5018413;28;20076;-65
2023/08/22 00:55:04;;;;;;;9.27;3.88;;;;;;;;;;5034359;28;20033;-67
2023/08/22 00:57:31;;;;;;;12.38;4.50;;;;;;;;;;5035225;28;20049;-67
2023/08/22 00:59:57;;;;;;;11.73;3.80;;;;;;;;;;5035390;28;20041;-66
2023/08/22 01:02:23;;;;;;;22.70;6.32;;;;;;;;;;5034328;28;20051;-66
2023/08/22 01:04:49;;;;;;;12.10;3.65;;;;;;;;;;5016548;28;20139;-66
2023/08/22 01:07:15;;;;;;;17.02;3.70;;;;;;;;;;5033238;28;20466;-66
2023/08/22 01:09:48;;;;;;;18.35;3.85;;;;;;;;;;5016530;28;20360;-66
2023/08/22 01:12:14;;;;;;;17.60;3.83;;;;;;;;;;5032895;28;20037;-66
2023/08/22 01:14:43;;;;;;;15.32;3.83;;;;;;;;;;5000254;28;20044;-67
2023/08/22 01:17:09;;;;;;;11.52;3.65;;;;;;;;;;5032916;28;20041;-66
2023/08/22 01:19:36;;;;;;;8.40;3.80;;;;;;;;;;5000488;28;20395;-66
2023/08/22 01:22:02;;;;;;;13.60;3.60;;;;;;;;;;5016614;28;20096;-67
2023/08/22 01:24:30;;;;;;;9.63;3.75;;;;;;;;;;5033788;28;20045;-66
2023/08/22 01:26:57;;;;;;;10.10;3.95;;;;;;;;;;5033067;28;20042;-66
2023/08/22 01:29:32;;;;;;;14.25;3.75;;;;;;;;;;5016651;28;20037;-66
2023/08/22 01:32:16;;;;;;;8.90;3.50;;;;;;;;;;5033020;28;20037;-66
2023/08/22 01:34:42;;;;;;;15.23;3.83;;;;;;;;;;5016506;28;20115;-66
2023/08/22 01:37:09;;;;;;;13.35;3.47;;;;;;;;;;5034718;28;20049;-66
2023/08/22 01:39:35;;;;;;;9.55;3.75;;;;;;;;;;5017251;28;20471;-67
2023/08/22 01:42:02;;;;;;;8.00;3.30;;;;;;;;;;5017412;28;20068;-66
2023/08/22 01:44:28;;;;;;;18.00;3.95;;;;;;;;;;5050447;28;20029;-66
2023/08/22 01:46:54;;;;;;;18.77;4.10;;;;;;;;;;5033705;28;20128;-66
2023/08/22 01:49:20;;;;;;;13.82;4.07;;;;;;;;;;5033425;28;20120;-66
2023/08/22 01:51:47;;;;;;;10.90;4.03;;;;;;;;;;5034297;28;20033;-66
2023/08/22 01:54:13;;;;;;;23.42;4.30;;;;;;;;;;5017304;28;20572;-66
2023/08/22 01:56:39;;;;;;;22.65;4.28;;;;;;;;;;5033498;28;20037;-66
2023/08/22 01:59:05;;;;;;;19.05;4.10;;;;;;;;;;5033401;28;20433;-68
2023/08/22 02:01:30;;;;;;;18.40;4.20;;;;;;;;;;5033465;28;20065;-65
2023/08/22 02:04:01;;;;;;;22.27;4.35;;;;;;;;;;5033314;28;20037;-65
2023/08/22 02:06:27;;;;;;;14.93;4.65;;;;;;;;;;5033319;28;20041;-65
2023/08/22 02:08:52;;;;;;;24.13;4.22;;;;;;;;;;5034152;28;20035;-65
2023/08/22 02:11:18;;;;;;;16.98;3.75;;;;;;;;;;5035790;28;20041;-66
2023/08/22 02:13:44;;;;;;;19.75;3.67;;;;;;;;;;5034139;28;20037;-65
2023/08/22 02:16:10;;;;;;;19.45;4.22;;;;;;;;;;5017000;28;20120;-66
2023/08/22 02:18:35;;;;;;;22.73;4.88;;;;;;;;;;5033772;28;20052;-67
2023/08/22 02:21:02;;;;;;;22.88;4.93;;;;;;;;;;5034860;28;20057;-66
2023/08/22 02:23:28;;;;;;;24.88;5.30;;;;;;;;;;5033226;28;20033;-67
2023/08/22 02:25:54;;;;;;;23.23;5.20;;;;;;;;;;5032745;28;20037;-66
2023/08/22 02:28:20;;;;;;;27.02;5.03;;;;;;;;;;5049337;28;20072;-65
2023/08/22 02:30:46;;;;;;;26.92;5.82;;;;;;;;;;5016145;28;20034;-65
2023/08/22 02:33:11;;;;;;;15.07;5.53;;;;;;;;;;5031724;28;20037;-65
2023/08/22 02:35:38;;;;;;;17.90;5.82;;;;;;;;;;5033578;28;20100;-65
2023/08/22 02:38:03;;;;;;;38.40;6.50;;;;;;;;;;5032744;28;20052;-65
2023/08/22 02:40:33;;;;;;;27.90;5.57;;;;;;;;;;5033920;28;20073;-65
2023/08/22 02:43:00;;;;;;;32.00;6.05;;;;;;;;;;5031540;28;20064;-65
2023/08/22 02:45:28;;;;;;;16.50;5.63;;;;;;;;;;5032656;28;20069;-66
2023/08/22 02:47:54;;;;;;;21.13;5.63;;;;;;;;;;5048886;28;20073;-66
2023/08/22 02:50:23;;;;;;;18.30;5.55;;;;;;;;;;5048541;28;20095;-65
2023/08/22 02:52:51;;;;;;;33.53;6.00;;;;;;;;;;5032385;28;20033;-66
2023/08/22 02:55:20;;;;;;;35.67;5.77;;;;;;;;;;5032518;28;20047;-66
2023/08/22 02:57:47;;;;;;;16.13;5.80;;;;;;;;;;5031877;28;20331;-66
2023/08/22 03:00:13;;;;;;;19.15;5.45;;;;;;;;;;5014781;28;20061;-66
2023/08/22 03:02:39;;;;;;;24.08;5.30;;;;;;;;;;4999386;28;20052;-66
2023/08/22 03:05:11;;;;;;;21.80;5.88;;;;;;;;;;5048851;28;20113;-66
2023/08/22 03:07:37;;;;;;;23.33;5.13;;;;;;;;;;5031836;28;20046;-67
2023/08/22 03:10:05;;;;;;;20.65;5.25;;;;;;;;;;5016068;28;20037;-66
2023/08/22 03:12:31;;;;;;;15.75;5.43;;;;;;;;;;5032114;28;20373;-66
2023/08/22 03:14:58;;;;;;;13.80;5.20;;;;;;;;;;5031002;28;20136;-65
2023/08/22 03:17:23;;;;;;;12.50;5.03;;;;;;;;;;5015139;28;20140;-66
2023/08/22 03:19:49;;;;;;;15.98;5.40;;;;;;;;;;5031821;28;20132;-65
2023/08/22 03:22:16;;;;;;;17.30;5.60;;;;;;;;;;5031709;28;20076;-68
2023/08/22 03:24:41;;;;;;;18.30;5.20;;;;;;;;;;5015124;28;20044;-69
2023/08/22 03:27:08;;;;;;;14.60;5.30;;;;;;;;;;5031689;28;20472;-68
2023/08/22 03:29:36;;;;;;;28.67;7.72;;;;;;;;;;5032854;28;20602;-67
2023/08/22 03:32:03;;;;;;;23.73;8.00;;;;;;;;;;5031608;28;20167;-68
2023/08/22 03:34:28;;;;;;;23.42;7.95;;;;;;;;;;5031658;28;20128;-68
2023/08/22 03:36:55;;;;;;;20.10;8.82;;;;;;;;;;5031977;28;20048;-68
2023/08/22 03:39:22;;;;;;;29.88;10.25;;;;;;;;;;5033940;28;20051;-69
2023/08/22 03:41:49;;;;;;;26.67;10.25;;;;;;;;;;5030429;28;20108;-68
2023/08/22 03:44:16;;;;;;;26.65;9.65;;;;;;;;;;5066519;28;20040;-67
2023/08/22 03:46:42;;;;;;;25.52;6.35;;;;;;;;;;5050617;28;20475;-69
2023/08/22 03:49:19;;;;;;;24.38;6.15;;;;;;;;;;5049349;28;20352;-69
2023/08/22 03:51:45;;;;;;;25.10;5.13;;;;;;;;;;5050517;28;20048;-68
2023/08/22 03:54:11;;;;;;;17.30;5.63;;;;;;;;;;5050468;28;20045;-69
2023/08/22 03:56:37;;;;;;;20.95;5.95;;;;;;;;;;5034433;28;20047;-69
2023/08/22 03:59:04;;;;;;;39.22;6.18;;;;;;;;;;5050753;28;20041;-68
2023/08/22 04:01:32;;;;;;;16.17;5.68;;;;;;;;;;5034258;28;20064;-68
2023/08/22 04:03:59;;;;;;;17.83;5.57;;;;;;;;;;5033851;28;20115;-68
2023/08/22 04:06:26;;;;;;;27.52;6.07;;;;;;;;;;5016988;28;20049;-68
2023/08/22 04:08:54;;;;;;;26.77;6.43;;;;;;;;;;5033631;28;20083;-68
2023/08/22 04:11:21;;;;;;;17.45;5.78;;;;;;;;;;5017052;28;20102;-69
2023/08/22 04:13:47;;;;;;;15.13;5.60;;;;;;;;;;5035602;28;20463;-68
2023/08/22 04:16:14;;;;;;;19.73;5.85;;;;;;;;;;5013724;28;20067;-68
2023/08/22 04:18:40;;;;;;;16.45;5.38;;;;;;;;;;5031435;28;20475;-68
2023/08/22 04:21:07;;;;;;;19.63;6.18;;;;;;;;;;5032407;28;20041;-68
2023/08/22 04:23:33;;;;;;;17.40;6.28;;;;;;;;;;5015148;28;20049;-68
2023/08/22 04:25:59;;;;;;;18.50;7.95;;;;;;;;;;5031936;28;20134;-69
2023/08/22 04:28:26;;;;;;;16.33;6.55;;;;;;;;;;5031250;28;20029;-68
2023/08/22 04:30:56;;;;;;;19.27;6.50;;;;;;;;;;5032317;28;20047;-68
2023/08/22 04:33:22;;;;;;;;;;;;;;;;;;5031633;28;20475;-67
2023/08/22 04:35:51;;;;;;;24.50;7.65;;;;;;;;;;5015161;28;20047;-68
2023/08/22 04:38:19;;;;;;;22.98;8.07;;;;;;;;;;4998587;28;20118;-68
2023/08/22 04:40:46;;;;;;;23.85;8.45;;;;;;;;;;5031158;28;20045;-68
2023/08/22 04:43:22;;;;;;;28.17;7.72;;;;;;;;;;4999587;28;20053;-68
2023/08/22 04:45:50;;;;;;;18.15;7.85;;;;;;;;;;5031070;28;20525;-70
2023/08/22 04:48:17;;;;;;;23.80;7.57;;;;;;;;;;5013465;28;20550;-68
2023/08/22 04:50:43;;;;;;;20.80;7.78;;;;;;;;;;5030877;28;20034;-70
2023/08/22 04:53:15;;;;;;;19.70;7.60;;;;;;;;;;5014560;28;20045;-68
2023/08/22 04:55:47;;;;;;;21.45;7.85;;;;;;;;;;5046753;28;20034;-68
2023/08/22 04:58:12;;;;;;;19.00;7.90;;;;;;;;;;5001753;28;20095;-68
2023/08/22 05:00:40;;;;;;;22.80;7.43;;;;;;;;;;5034549;28;20030;-68
2023/08/22 05:03:07;;;;;;;21.90;6.72;;;;;;;;;;5018212;28;20103;-68
2023/08/22 05:05:34;;;;;;;20.50;8.25;;;;;;;;;;5034634;28;20041;-68
2023/08/22 05:08:02;;;;;;;19.83;7.80;;;;;;;;;;5001517;28;20041;-68
2023/08/22 05:10:29;;;;;;;16.73;7.97;;;;;;;;;;5033922;28;20045;-68
2023/08/22 05:12:55;;;;;;;14.98;8.20;;;;;;;;;;5034994;28;20102;-68
2023/08/22 05:15:23;;;;;;;17.55;7.53;;;;;;;;;;5034240;28;20534;-69
2023/08/22 05:17:50;;;;;;;18.05;7.35;;;;;;;;;;5034291;28;20045;-68
2023/08/22 05:20:16;;;;;;;20.58;8.35;;;;;;;;;;5034384;28;20357;-68
2023/08/22 05:22:43;;;;;;;15.38;7.63;;;;;;;;;;5000749;28;20480;-68
2023/08/22 05:25:10;;;;;;;21.35;8.82;;;;;;;;;;5017913;28;20037;-68
2023/08/22 05:27:37;;;;;;;20.42;8.35;;;;;;;;;;5017943;28;20460;-69
2023/08/22 05:30:05;;;;;;;16.30;8.25;;;;;;;;;;5034131;28;20056;-68
2023/08/22 05:32:32;;;;;;;20.15;8.60;;;;;;;;;;5033450;28;20180;-68
2023/08/22 05:34:58;;;;;;;16.92;8.43;;;;;;;;;;5033712;28;20076;-68
2023/08/22 05:37:25;;;;;;;20.23;8.35;;;;;;;;;;5017249;28;20400;-68
2023/08/22 05:39:54;;;;;;;20.13;9.38;;;;;;;;;;5033728;28;20068;-68
2023/08/22 05:42:21;;;;;;;18.98;8.68;;;;;;;;;;5000912;28;20063;-68
2023/08/22 05:44:47;;;;;;;21.85;9.20;;;;;;;;;;5033682;28;20455;-69
2023/08/22 05:47:12;;;;;;;17.17;9.07;;;;;;;;;;5033721;28;20073;-68
2023/08/22 05:49:39;;;;;;;37.28;10.38;;;;;;;;;;5033416;28;20433;-68
2023/08/22 05:52:06;;;;;;;35.30;9.18;;;;;;;;;;5034377;28;20498;-68
2023/08/22 05:54:34;;;;;;;28.45;9.60;;;;;;;;;;5033755;28;20115;-68
2023/08/22 05:57:04;;;;;;;24.98;9.48;;;;;;;;;;5033320;28;20140;-68
2023/08/22 05:59:32;;;;;;;26.40;9.13;;;;;;;;;;5050090;28;20048;-68
2023/08/22 06:01:59;;;;;;;35.97;9.48;;;;;;;;;;5034107;28;20052;-68
2023/08/22 06:04:27;;;;;;;25.77;8.98;;;;;;;;;;5034560;28;20380;-68
2023/08/22 06:06:56;;;;;;;;;;;;;;;;;;5035874;28;20048;-68
2023/08/22 06:09:22;;;;;;;33.97;9.27;;;;;;;;;;5017521;28;19913;-68
2023/08/22 06:11:49;;;;;;;27.05;8.68;;;;;;;;;;5033165;28;20041;-70
2023/08/22 06:14:15;;;;;;;39.22;10.45;;;;;;;;;;5033475;28;20033;-68
2023/08/22 06:16:43;;;;;;;24.77;8.10;;;;;;;;;;5033122;28;20064;-68
2023/08/22 06:19:10;;;;;;;47.42;10.02;;;;;;;;;;5016852;28;20155;-68
2023/08/22 06:21:41;;;;;;;56.08;10.23;;;;;;;;;;5017155;28;20611;-68
2023/08/22 06:24:08;;;;;;;40.10;9.65;;;;;;;;;;5033181;28;20033;-68
2023/08/22 06:26:35;;;;;;;27.05;8.88;;;;;;;;;;5033745;28;20041;-69
2023/08/22 06:29:01;;;;;;;30.25;9.85;;;;;;;;;;5017120;28;20052;-69
2023/08/22 06:31:27;;;;;;;28.63;9.98;;;;;;;;;;5016544;28;20492;-68
2023/08/22 06:33:53;;;;;;;22.45;9.23;;;;;;;;;;5016170;28;20072;-69
2023/08/22 06:36:20;;;;;;;25.70;9.05;;;;;;;;;;5049616;28;20041;-69
2023/08/22 06:38:48;;;;;;;25.42;9.15;;;;;;;;;;5031966;28;20160;-68
2023/08/22 06:41:16;;;;;;;24.38;9.23;;;;;;;;;;5015143;28;20114;-68
2023/08/22 06:43:43;;;;;;;27.02;8.95;;;;;;;;;;4998944;28;20569;-69
2023/08/22 06:46:12;;;;;;;29.70;10.23;;;;;;;;;;5014941;28;20132;-69
2023/08/22 06:48:40;;;;;;;19.52;9.43;;;;;;;;;;5018605;28;20115;-69
2023/08/22 06:51:07;;;;;;;18.77;8.68;;;;;;;;;;5034531;28;20056;-68
2023/08/22 06:53:33;;;;;;;27.90;9.57;;;;;;;;;;4998658;28;20094;-69
2023/08/22 06:56:01;;;;;;;23.13;8.23;;;;;;;;;;4998976;28;20135;-69
2023/08/22 06:58:30;;;;;;;33.70;9.55;;;;;;;;;;5031355;28;20065;-68
2023/08/22 07:00:59;;;;;;;15.50;8.07;;;;;;;;;;5014924;28;20107;-68
2023/08/22 07:03:24;;;;;;;22.83;8.88;;;;;;;;;;5014522;28;20495;-68
2023/08/22 07:05:52;;;;;;;17.08;8.52;;;;;;;;;;4998419;28;20046;-68
2023/08/22 07:08:19;;;;;;;23.95;8.50;;;;;;;;;;5031415;28;20099;-68
2023/08/22 07:10:45;;;;;;;23.80;8.68;;;;;;;;;;5015900;28;20556;-68
2023/08/22 07:13:16;;;;;;;16.98;7.70;;;;;;;;;;4997661;28;20046;-69
2023/08/22 07:15:43;;;;;;;16.02;7.10;;;;;;;;;;5014935;28;20515;-69
2023/08/22 07:18:09;;;;;;;16.08;7.93;;;;;;;;;;4982913;28;20112;-69
2023/08/22 07:20:35;;;;;;;14.80;7.80;;;;;;;;;;4998929;28;20499;-69
2023/08/22 07:23:01;;;;;;;26.98;8.50;;;;;;;;;;4981961;28;20029;-69
2023/08/22 07:25:27;;;;;;;13.10;5.95;;;;;;;;;;5010362;28;20045;-69
2023/08/22 07:27:54;;;;;;;19.27;6.80;;;;;;;;;;4981575;28;20033;-69
2023/08/22 07:30:20;;;;;;;13.90;5.75;;;;;;;;;;4981828;28;20140;-68
2023/08/22 07:32:46;;;;;;;12.07;4.57;;;;;;;;;;5014047;28;20183;-69
2023/08/22 07:35:12;;;;;;;12.68;5.13;;;;;;;;;;4997673;28;20029;-69
2023/08/22 07:37:38;;;;;;;13.95;5.28;;;;;;;;;;4997294;28;20058;-69
2023/08/22 07:40:04;;;;;;;11.27;4.50;;;;;;;;;;5030191;28;20517;-70
2023/08/22 07:42:31;;;;;;;16.27;3.83;;;;;;;;;;5013463;28;20057;-69
2023/08/22 07:44:58;;;;;;;6.93;3.47;;;;;;;;;;4974241;28;20050;-70
2023/08/22 07:47:25;;;;;;;9.10;3.35;;;;;;;;;;4958118;28;20137;-71
2023/08/22 07:49:56;;;;;;;12.85;3.70;;;;;;;;;;4978440;28;20057;-70
2023/08/22 07:52:30;;;;;;;11.60;4.43;;;;;;;;;;5026508;28;20061;-70
2023/08/22 07:54:56;;;;;;;7.22;3.67;;;;;;;;;;5013545;28;20037;-70
2023/08/22 07:57:22;;;;;;;8.85;3.60;;;;;;;;;;5013535;28;20537;-69
2023/08/22 07:59:49;;;;;;;6.93;3.72;;;;;;;;;;5013650;28;20057;-69
2023/08/22 08:02:15;;;;;;;14.25;4.25;;;;;;;;;;5013764;28;20041;-69
2023/08/22 08:04:40;;;;;;;17.40;3.83;;;;;;;;;;5030179;28;20417;-70
2023/08/22 08:07:06;;;;;;;11.45;4.18;;;;;;;;;;5013624;28;20507;-70
2023/08/22 08:09:33;;;;;;;10.88;3.88;;;;;;;;;;5013416;28;20041;-69
2023/08/22 08:12:00;;;;;;;7.63;3.30;;;;;;;;;;4981208;28;20037;-69
2023/08/22 08:14:26;;;;;;;10.30;3.22;;;;;;;;;;5013368;28;20041;-70
2023/08/22 08:16:53;;;;;;;10.45;2.97;;;;;;;;;;5000350;28;20494;-69
2023/08/22 08:19:19;;;;;;;4.95;2.67;;;;;;;;;;5035333;28;20045;-69
2023/08/22 08:21:45;;;;;;;10.68;4.53;;;;;;;;;;5020250;28;20057;-69
2023/08/22 08:24:14;;;;;;;8.50;3.15;;;;;;;;;;5020601;28;20123;-69
2023/08/22 08:26:40;;;;;;;5.03;2.72;;;;;;;;;;5018065;28;20049;-69
2023/08/22 08:29:07;;;;;;;4.18;2.50;;;;;;;;;;5014537;28;20480;-69
2023/08/22 08:31:33;;;;;;;9.20;3.20;;;;;;;;;;5031772;28;20044;-69
2023/08/22 08:34:00;;;;;;;9.18;2.97;;;;;;;;;;5018256;28;20379;-69
2023/08/22 08:36:26;;;;;;;9.73;2.80;;;;;;;;;;5020406;28;20056;-71
2023/08/22 08:38:52;;;;;;;7.43;3.13;;;;;;;;;;5020703;28;20057;-69
2023/08/22 08:41:20;;;;;;;9.82;3.00;;;;;;;;;;5021203;28;20420;-69
2023/08/22 08:43:47;;;;;;;10.27;3.60;;;;;;;;;;5021038;28;20166;-69
2023/08/22 08:46:15;;;;;;;6.85;3.25;;;;;;;;;;5021152;28;20124;-69
2023/08/22 08:48:42;;;;;;;5.13;2.90;;;;;;;;;;5020596;28;20447;-69
2023/08/22 08:51:08;;;;;;;11.18;3.17;;;;;;;;;;5021730;28;20490;-70
2023/08/22 08:53:37;;;;;;;5.20;2.58;;;;;;;;;;5037464;28;20048;-69
2023/08/22 08:56:04;;;;;;;5.10;2.60;;;;;;;;;;5020585;28;20049;-69
2023/08/22 08:58:30;;;;;;;7.68;2.83;;;;;;;;;;5020283;28;20044;-68
2023/08/22 09:00:59;;;;;;;6.93;3.20;;;;;;;;;;5021159;28;20084;-68
2023/08/22 09:03:25;;;;;;;9.05;3.20;;;;;;;;;;5020902;28;20044;-70
2023/08/22 09:05:52;;;;;;;6.53;3.40;;;;;;;;;;5020530;28;20388;-68
2023/08/22 09:08:18;;;;;;;7.47;3.90;;;;;;;;;;5003806;28;20051;-69
2023/08/22 09:10:52;;;;;;;7.32;3.30;;;;;;;;;;5017919;28;20124;-69
2023/08/22 09:13:26;;;;;;;10.32;4.50;;;;;;;;;;5017923;28;20065;-69
2023/08/22 09:15:57;;;;;;;11.13;4.47;;;;;;;;;;5017447;28;20038;-69
2023/08/22 09:18:22;;;;;;;7.05;3.10;;;;;;;;;;4996423;28;20084;-69
2023/08/22 09:20:48;;;;;;;8.90;3.22;;;;;;;;;;4981025;28;20607;-69
2023/08/22 09:23:27;;;;;;;3.97;3.17;;;;;;;;;;4980833;28;20152;-69
2023/08/22 09:25:52;;;;;;;6.72;3.28;;;;;;;;;;5013294;28;20041;-69
2023/08/22 09:28:19;;;;;;;11.77;3.85;;;;;;;;;;4980566;28;20050;-69
2023/08/22 09:30:48;;;;;;;11.55;4.47;;;;;;;;;;4996753;28;20104;-69
2023/08/22 09:33:14;;;;;;;8.23;4.00;;;;;;;;;;4980539;28;20477;-69
2023/08/22 09:35:40;;;;;;;13.80;3.53;;;;;;;;;;4980617;28;20576;-68
2023/08/22 09:38:10;;;;;;;7.22;3.25;;;;;;;;;;5012901;28;20108;-69
2023/08/22 09:40:50;;;;;;;7.10;4.13;;;;;;;;;;5013010;28;20041;-68
2023/08/22 09:43:16;;;;;;;6.43;3.90;;;;;;;;;;4979655;28;20448;-69
2023/08/22 09:45:42;;;;;;;9.18;3.97;;;;;;;;;;4996759;28;20026;-68
2023/08/22 09:48:09;;;;;;;7.93;4.30;;;;;;;;;;4980546;28;20503;-69
2023/08/22 09:50:36;;;;;;;11.48;3.55;;;;;;;;;;5016312;28;20029;-68
2023/08/22 09:53:03;;;;;;;15.43;4.70;;;;;;;;;;5016234;28;20147;-69
2023/08/22 09:55:29;;;;;;;13.13;3.40;;;;;;;;;;4988355;28;20132;-68
2023/08/22 09:57:55;;;;;;;11.57;3.60;;;;;;;;;;5000856;28;20045;-68
2023/08/22 10:00:21;;;;;;;11.07;4.72;;;;;;;;;;5018177;28;20095;-69
2023/08/22 10:02:48;;;;;;;8.70;3.72;;;;;;;;;;5001196;28;20041;-68
2023/08/22 10:05:13;;;;;;;11.73;3.55;;;;;;;;;;5017441;28;20037;-68
2023/08/22 10:07:39;;;;;;;11.95;3.90;;;;;;;;;;5034325;28;20040;-69
2023/08/22 10:10:05;;;;;;;12.10;3.70;;;;;;;;;;5001077;28;20128;-69
2023/08/22 10:12:31;;;;;;;11.73;4.20;;;;;;;;;;5000949;28;20073;-68
2023/08/22 10:14:59;;;;;;;10.82;3.95;;;;;;;;;;5036388;28;20048;-68
2023/08/22 10:17:25;;;;;;;11.45;4.38;;;;;;;;;;5035290;28;20068;-68
2023/08/22 10:19:51;;;;;;;8.55;4.40;;;;;;;;;;5035240;28;20049;-68
2023/08/22 10:22:17;;;;;;;10.13;4.05;;;;;;;;;;5035473;28;20052;-69
2023/08/22 10:24:46;;;;;;;8.32;4.22;;;;;;;;;;5018602;28;20033;-69
2023/08/22 10:27:14;;;;;;;15.30;4.53;;;;;;;;;;4995522;28;20048;-68
2023/08/22 10:29:47;;;;;;;10.35;3.78;;;;;;;;;;4979375;28;20503;-68
2023/08/22 10:32:13;;;;;;;12.40;4.65;;;;;;;;;;4980000;28;20049;-68
2023/08/22 10:34:39;;;;;;;16.00;4.70;;;;;;;;;;4979584;28;20443;-68
2023/08/22 10:37:13;;;;;;;7.00;4.10;;;;;;;;;;4995359;28;20060;-69
2023/08/22 10:39:39;;;;;;;18.40;4.82;;;;;;;;;;4995636;28;20037;-68
2023/08/22 10:42:06;;;;;;;11.50;4.95;;;;;;;;;;4995413;28;20073;-68
2023/08/22 10:44:36;;;;;;;10.52;4.80;;;;;;;;;;4979485;28;20034;-71
2023/08/22 10:47:06;;;;;;;17.48;5.13;;;;;;;;;;4979571;28;20041;-68
2023/08/22 10:49:32;;;;;;;;;;;;;;;;;;4980341;28;20045;-68
2023/08/22 10:52:07;;;;;;;12.57;5.18;;;;;;;;;;4969365;28;19913;-68
2023/08/22 10:54:51;;;;;;;11.88;5.50;;;;;;;;;;4975264;28;20042;-68
2023/08/22 10:57:18;;;;;;;12.60;4.88;;;;;;;;;;4981408;28;20128;-68
2023/08/22 10:59:59;;;;;;;14.27;5.43;;;;;;;;;;4999616;28;20048;-69
2023/08/22 11:02:32;;;;;;;9.43;4.32;;;;;;;;;;5015804;28;20468;-68
2023/08/22 11:05:00;;;;;;;10.30;5.20;;;;;;;;;;4999413;28;20030;-68
2023/08/22 11:07:26;;;;;;;7.55;4.00;;;;;;;;;;5032076;28;20380;-68
2023/08/22 11:09:56;;;;;;;16.23;6.40;;;;;;;;;;5015827;28;20387;-68
2023/08/22 11:12:22;;;;;;;13.60;4.95;;;;;;;;;;5015766;28;20052;-68
2023/08/22 11:14:49;;;;;;;8.35;3.92;;;;;;;;;;5032867;28;20120;-68
2023/08/22 11:17:15;;;;;;;9.25;4.28;;;;;;;;;;4999079;28;20041;-68
2023/08/22 11:19:45;;;;;;;7.57;4.80;;;;;;;;;;5014917;28;20037;-68
2023/08/22 11:22:10;;;;;;;6.63;4.07;;;;;;;;;;5015137;28;20040;-68
2023/08/22 11:24:36;;;;;;;10.40;4.40;;;;;;;;;;5015120;28;20029;-68
2023/08/22 11:27:05;;;;;;;8.40;4.45;;;;;;;;;;4999247;28;20041;-68
2023/08/22 11:29:43;;;;;;;15.57;4.63;;;;;;;;;;5031977;28;20175;-68
2023/08/22 11:32:19;;;;;;;9.30;4.78;;;;;;;;;;4999908;28;20183;-70
2023/08/22 11:34:46;;;;;;;9.93;3.88;;;;;;;;;;4998953;28;20037;-68
2023/08/22 11:37:12;;;;;;;6.60;4.20;;;;;;;;;;5015182;28;20036;-68
2023/08/22 11:39:39;;;;;;;10.18;4.88;;;;;;;;;;5016378;28;20029;-69
2023/08/22 11:42:05;;;;;;;11.90;5.60;;;;;;;;;;5033287;28;20076;-69
2023/08/22 11:44:32;;;;;;;11.65;4.90;;;;;;;;;;5015260;28;20037;-68
2023/08/22 11:46:58;;;;;;;8.05;4.32;;;;;;;;;;4998734;28;20495;-68
2023/08/22 11:49:50;;;;;;;8.20;5.00;;;;;;;;;;5031386;28;20040;-68
2023/08/22 11:52:16;;;;;;;7.60;3.95;;;;;;;;;;5014952;28;20037;-68
2023/08/22 11:54:42;;;;;;;6.57;4.15;;;;;;;;;;5014812;28;20033;-69
2023/08/22 11:57:08;;;;;;;8.00;3.60;;;;;;;;;;5015237;28;20384;-68
2023/08/22 11:59:34;;;;;;;6.82;4.80;;;;;;;;;;4998898;28;20037;-69
2023/08/22 12:02:03;;;;;;;8.55;4.05;;;;;;;;;;5014860;28;20036;-68
2023/08/22 12:04:42;;;;;;;10.88;4.60;;;;;;;;;;5014673;28;20156;-69
2023/08/22 12:07:09;;;;;;;4.57;3.35;;;;;;;;;;5014981;28;20052;-69
2023/08/22 12:09:36;;;;;;;7.63;3.80;;;;;;;;;;5014802;28;20106;-69
2023/08/22 12:12:12;;;;;;;7.57;4.20;;;;;;;;;;5014520;28;20037;-69
2023/08/22 12:14:38;;;;;;;7.80;3.70;;;;;;;;;;5031287;28;20037;-68
2023/08/22 12:17:04;;;;;;;6.47;3.90;;;;;;;;;;5014815;28;20025;-68
2023/08/22 12:19:29;;;;;;;10.40;4.50;;;;;;;;;;5014615;28;20460;-68
2023/08/22 12:21:57;;;;;;;7.05;4.10;;;;;;;;;;5014689;28;20434;-69
2023/08/22 12:24:23;;;;;;;11.50;4.85;;;;;;;;;;5014614;28;20037;-68
2023/08/22 12:26:48;;;;;;;9.13;4.97;;;;;;;;;;5031107;28;20479;-68
2023/08/22 12:29:15;;;;;;;11.23;5.20;;;;;;;;;;4998425;28;20033;-68
2023/08/22 12:31:40;;;;;;;10.50;5.60;;;;;;;;;;5014065;28;20033;-69
2023/08/22 12:34:06;;;;;;;13.10;5.13;;;;;;;;;;4998574;28;20460;-68
2023/08/22 12:36:31;;;;;;;12.90;5.55;;;;;;;;;;5030768;28;20061;-68
2023/08/22 12:38:57;;;;;;;11.52;5.57;;;;;;;;;;5031101;28;20049;-68
2023/08/22 12:41:23;;;;;;;10.07;6.43;;;;;;;;;;5032115;28;20109;-68
2023/08/22 12:43:50;;;;;;;11.05;6.40;;;;;;;;;;5030572;28;20057;-68
2023/08/22 12:46:15;;;;;;;16.13;7.03;;;;;;;;;;5014436;28;20545;-68
2023/08/22 12:48:41;;;;;;;17.75;6.97;;;;;;;;;;5014345;28;20041;-69
2023/08/22 12:51:06;;;;;;;17.50;7.30;;;;;;;;;;5014346;28;20025;-68
2023/08/22 12:53:32;;;;;;;13.40;7.43;;;;;;;;;;4997712;28;20124;-68
2023/08/22 12:55:58;;;;;;;10.88;6.95;;;;;;;;;;5014228;28;20033;-68
2023/08/22 12:58:24;;;;;;;19.50;7.47;;;;;;;;;;5014139;28;20049;-68
2023/08/22 13:00:50;;;;;;;19.27;8.30;;;;;;;;;;5015785;28;20041;-68
2023/08/22 13:03:15;;;;;;;17.15;7.57;;;;;;;;;;5014856;28;20049;-69
2023/08/22 13:05:41;;;;;;;17.42;7.78;;;;;;;;;;4997653;28;20040;-70
2023/08/22 13:08:07;;;;;;;20.85;7.68;;;;;;;;;;5014398;28;20052;-68
2023/08/22 13:10:32;;;;;;;16.02;7.32;;;;;;;;;;5031440;28;20045;-69
2023/08/22 13:12:58;;;;;;;13.93;6.82;;;;;;;;;;4997753;28;20037;-68
2023/08/22 13:15:24;;;;;;;13.60;7.53;;;;;;;;;;5030532;28;20072;-68
2023/08/22 13:17:50;;;;;;;17.55;7.15;;;;;;;;;;4999115;28;20531;-69
2023/08/22 13:20:16;;;;;;;13.43;6.70;;;;;;;;;;5033883;28;20460;-70
2023/08/22 13:22:41;;;;;;;14.65;6.47;;;;;;;;;;5001107;28;20045;-68
2023/08/22 13:25:07;;;;;;;12.02;6.90;;;;;;;;;;5034082;28;20103;-68
2023/08/22 13:27:35;;;;;;;17.73;7.07;;;;;;;;;;5016255;28;20049;-68
2023/08/22 13:30:01;;;;;;;18.55;7.10;;;;;;;;;;5000126;28;20099;-69
2023/08/22 13:32:27;;;;;;;14.20;6.43;;;;;;;;;;5016159;28;20049;-69
2023/08/22 13:34:53;;;;;;;13.20;6.35;;;;;;;;;;5016606;28;20131;-69
2023/08/22 13:37:18;;;;;;;11.55;6.53;;;;;;;;;;4999903;28;20149;-69
2023/08/22 13:39:45;;;;;;;15.18;6.45;;;;;;;;;;5000137;28;20029;-68
2023/08/22 13:42:11;;;;;;;13.55;6.60;;;;;;;;;;5016108;28;20116;-70
2023/08/22 13:44:37;;;;;;;12.80;6.13;;;;;;;;;;5000014;28;20040;-69
2023/08/22 13:47:03;;;;;;;14.10;7.25;;;;;;;;;;5015974;28;20376;-68
2023/08/22 13:49:29;;;;;;;13.80;6.88;;;;;;;;;;4983630;28;20092;-68
2023/08/22 13:51:55;;;;;;;13.45;7.22;;;;;;;;;;5016002;28;20045;-68
2023/08/22 13:54:22;;;;;;;11.98;6.72;;;;;;;;;;5016079;28;20099;-69
2023/08/22 13:56:48;;;;;;;15.07;6.88;;;;;;;;;;5016029;28;20044;-69
2023/08/22 13:59:14;;;;;;;21.83;7.18;;;;;;;;;;4996955;28;20045;-69
2023/08/22 14:01:41;;;;;;;18.67;7.60;;;;;;;;;;5000719;28;20043;-68
2023/08/22 14:04:07;;;;;;;15.57;7.50;;;;;;;;;;5000592;28;20478;-69
2023/08/22 14:06:34;;;;;;;19.30;7.28;;;;;;;;;;5016561;28;20041;-69
2023/08/22 14:09:00;;;;;;;15.02;7.90;;;;;;;;;;5049943;28;20045;-68
2023/08/22 14:11:25;;;;;;;17.85;8.27;;;;;;;;;;5016454;28;20103;-68
2023/08/22 14:13:51;;;;;;;13.45;7.53;;;;;;;;;;5017152;28;20034;-68
2023/08/22 14:16:17;;;;;;;16.10;8.65;;;;;;;;;;5016699;28;20041;-69
2023/08/22 14:18:43;;;;;;;18.05;8.13;;;;;;;;;;5016748;28;20058;-69
2023/08/22 14:21:08;;;;;;;19.25;7.15;;;;;;;;;;5000378;28;20033;-68
2023/08/22 14:23:34;;;;;;;16.83;8.15;;;;;;;;;;5016222;28;20029;-69
2023/08/22 14:26:00;;;;;;;13.85;7.90;;;;;;;;;;5000341;28;20507;-69
2023/08/22 14:28:26;;;;;;;15.20;7.00;;;;;;;;;;5016583;28;20460;-69
2023/08/22 14:30:59;;;;;;;16.10;7.55;;;;;;;;;;5000103;28;20075;-69
2023/08/22 14:33:26;;;;;;;12.85;6.95;;;;;;;;;;5032574;28;20037;-69